sensor_id;sensor_type;location;lat;lon;timestamp;pressure;altitude;pressure_sealevel;temperature
12918;BMP180;6526;54.312;13.092;2022-11-25T00:01:39;101878.00;;;8.30
12918;BMP180;6526;54.312;13.092;2022-11-25T00:04:05;101881.00;;;8.30
12918;BMP180;6526;54.312;13.092;2022-11-25T00:06:35;101882.00;;;8.30
12918;BMP180;6526;54.312;13.092;2022-11-25T00:09:11;101885.00;;;8.30
12918;BMP180;6526;54.312;13.092;2022-11-25T00:11:39;101877.00;;;8.30
12918;BMP180;6526;54.312;13.092;2022-11-25T00:14:08;101872.00;;;8.30
12918;BMP180;6526;54.312;13.092;2022-11-25T00:16:35;101875.00;;;8.20
12918;BMP180;6526;54.312;13.092;2022-11-25T00:19:01;101882.00;;;8.20
12918;BMP180;6526;54.312;13.092;2022-11-25T00:21:31;101874.00;;;8.10
12918;BMP180;6526;54.312;13.092;2022-11-25T00:24:00;101880.00;;;8.00
12918;BMP180;6526;54.312;13.092;2022-11-25T00:26:28;101874.00;;;8.00
12918;BMP180;6526;54.312;13.092;2022-11-25T00:28:56;101877.00;;;8.20
12918;BMP180;6526;54.312;13.092;2022-11-25T00:31:32;101881.00;;;8.30
12918;BMP180;6526;54.312;13.092;2022-11-25T00:33:58;101877.00;;;8.10
12918;BMP180;6526;54.312;13.092;2022-11-25T00:36:27;101869.00;;;8.10
12918;BMP180;6526;54.312;13.092;2022-11-25T00:39:05;101857.00;;;8.20
12918;BMP180;6526;54.312;13.092;2022-11-25T00:41:32;101863.00;;;8.20
12918;BMP180;6526;54.312;13.092;2022-11-25T00:44:18;101871.00;;;8.10
12918;BMP180;6526;54.312;13.092;2022-11-25T00:47:07;101870.00;;;8.10
12918;BMP180;6526;54.312;13.092;2022-11-25T00:49:34;101862.00;;;8.20
12918;BMP180;6526;54.312;13.092;2022-11-25T00:52:01;101870.00;;;8.00
12918;BMP180;6526;54.312;13.092;2022-11-25T00:54:27;101870.00;;;8.10
12918;BMP180;6526;54.312;13.092;2022-11-25T00:56:53;101864.00;;;8.10
12918;BMP180;6526;54.312;13.092;2022-11-25T00:59:19;101873.00;;;8.10
12918;BMP180;6526;54.312;13.092;2022-11-25T01:01:46;101875.00;;;8.10
12918;BMP180;6526;54.312;13.092;2022-11-25T01:04:12;101880.00;;;8.10
12918;BMP180;6526;54.312;13.092;2022-11-25T01:06:38;101878.00;;;8.20
12918;BMP180;6526;54.312;13.092;2022-11-25T01:09:05;101878.00;;;8.20
12918;BMP180;6526;54.312;13.092;2022-11-25T01:11:32;101878.00;;;8.10
12918;BMP180;6526;54.312;13.092;2022-11-25T01:13:58;101877.00;;;8.10
12918;BMP180;6526;54.312;13.092;2022-11-25T01:16:24;101877.00;;;8.10
12918;BMP180;6526;54.312;13.092;2022-11-25T01:18:51;101881.00;;;8.00
12918;BMP180;6526;54.312;13.092;2022-11-25T01:21:20;101876.00;;;8.00
12918;BMP180;6526;54.312;13.092;2022-11-25T01:23:47;101879.00;;;8.20
12918;BMP180;6526;54.312;13.092;2022-11-25T01:26:16;101860.00;;;8.20
12918;BMP180;6526;54.312;13.092;2022-11-25T01:28:42;101876.00;;;8.20
12918;BMP180;6526;54.312;13.092;2022-11-25T01:31:12;101870.00;;;8.30
12918;BMP180;6526;54.312;13.092;2022-11-25T01:33:39;101878.00;;;8.30
12918;BMP180;6526;54.312;13.092;2022-11-25T01:36:08;101865.00;;;8.30
12918;BMP180;6526;54.312;13.092;2022-11-25T01:38:35;101882.00;;;8.40
12918;BMP180;6526;54.312;13.092;2022-11-25T01:41:04;101860.00;;;8.40
12918;BMP180;6526;54.312;13.092;2022-11-25T01:43:30;101869.00;;;8.30
12918;BMP180;6526;54.312;13.092;2022-11-25T01:46:26;101871.00;;;8.30
12918;BMP180;6526;54.312;13.092;2022-11-25T01:48:58;101873.00;;;8.30
12918;BMP180;6526;54.312;13.092;2022-11-25T01:51:42;101874.00;;;8.20
12918;BMP180;6526;54.312;13.092;2022-11-25T01:54:10;101871.00;;;8.10
12918;BMP180;6526;54.312;13.092;2022-11-25T01:56:45;101875.00;;;8.10
12918;BMP180;6526;54.312;13.092;2022-11-25T01:59:13;101879.00;;;7.90
12918;BMP180;6526;54.312;13.092;2022-11-25T02:01:39;101870.00;;;8.00
12918;BMP180;6526;54.312;13.092;2022-11-25T02:04:05;101877.00;;;7.90
12918;BMP180;6526;54.312;13.092;2022-11-25T02:06:38;101860.00;;;7.90
12918;BMP180;6526;54.312;13.092;2022-11-25T02:09:07;101869.00;;;7.90
12918;BMP180;6526;54.312;13.092;2022-11-25T02:11:35;101860.00;;;7.90
12918;BMP180;6526;54.312;13.092;2022-11-25T02:14:04;101858.00;;;7.70
12918;BMP180;6526;54.312;13.092;2022-11-25T02:16:31;101859.00;;;7.80
12918;BMP180;6526;54.312;13.092;2022-11-25T02:18:57;101860.00;;;7.90
12918;BMP180;6526;54.312;13.092;2022-11-25T02:21:35;101864.00;;;7.70
12918;BMP180;6526;54.312;13.092;2022-11-25T02:26:41;101879.00;;;7.70
12918;BMP180;6526;54.312;13.092;2022-11-25T02:29:07;101863.00;;;7.80
12918;BMP180;6526;54.312;13.092;2022-11-25T02:31:33;101862.00;;;7.80
12918;BMP180;6526;54.312;13.092;2022-11-25T02:33:59;101870.00;;;7.80
12918;BMP180;6526;54.312;13.092;2022-11-25T02:36:25;101874.00;;;7.80
12918;BMP180;6526;54.312;13.092;2022-11-25T02:38:56;101875.00;;;7.70
12918;BMP180;6526;54.312;13.092;2022-11-25T02:43:56;101879.00;;;7.90
12918;BMP180;6526;54.312;13.092;2022-11-25T02:46:24;101875.00;;;7.80
12918;BMP180;6526;54.312;13.092;2022-11-25T02:48:53;101871.00;;;7.70
12918;BMP180;6526;54.312;13.092;2022-11-25T02:51:22;101870.00;;;7.70
12918;BMP180;6526;54.312;13.092;2022-11-25T02:53:49;101871.00;;;7.60
12918;BMP180;6526;54.312;13.092;2022-11-25T02:56:16;101880.00;;;7.70
12918;BMP180;6526;54.312;13.092;2022-11-25T02:58:43;101870.00;;;7.60
12918;BMP180;6526;54.312;13.092;2022-11-25T03:01:09;101876.00;;;7.60
12918;BMP180;6526;54.312;13.092;2022-11-25T03:03:36;101872.00;;;7.50
12918;BMP180;6526;54.312;13.092;2022-11-25T03:06:03;101876.00;;;7.50
12918;BMP180;6526;54.312;13.092;2022-11-25T03:08:29;101874.00;;;7.60
12918;BMP180;6526;54.312;13.092;2022-11-25T03:10:55;101881.00;;;7.70
12918;BMP180;6526;54.312;13.092;2022-11-25T03:13:21;101861.00;;;7.60
12918;BMP180;6526;54.312;13.092;2022-11-25T03:15:48;101855.00;;;7.40
12918;BMP180;6526;54.312;13.092;2022-11-25T03:18:14;101871.00;;;7.40
12918;BMP180;6526;54.312;13.092;2022-11-25T03:20:40;101856.00;;;7.30
12918;BMP180;6526;54.312;13.092;2022-11-25T03:23:06;101872.00;;;7.20
12918;BMP180;6526;54.312;13.092;2022-11-25T03:25:34;101862.00;;;7.10
12918;BMP180;6526;54.312;13.092;2022-11-25T03:28:01;101869.00;;;7.20
12918;BMP180;6526;54.312;13.092;2022-11-25T03:30:28;101865.00;;;7.20
12918;BMP180;6526;54.312;13.092;2022-11-25T03:32:54;101870.00;;;7.30
12918;BMP180;6526;54.312;13.092;2022-11-25T03:35:21;101858.00;;;7.30
12918;BMP180;6526;54.312;13.092;2022-11-25T03:37:48;101873.00;;;7.20
12918;BMP180;6526;54.312;13.092;2022-11-25T03:40:15;101872.00;;;7.40
12918;BMP180;6526;54.312;13.092;2022-11-25T03:42:41;101864.00;;;7.50
12918;BMP180;6526;54.312;13.092;2022-11-25T03:45:10;101869.00;;;7.40
12918;BMP180;6526;54.312;13.092;2022-11-25T03:47:38;101876.00;;;7.40
12918;BMP180;6526;54.312;13.092;2022-11-25T03:50:04;101881.00;;;7.30
12918;BMP180;6526;54.312;13.092;2022-11-25T03:52:31;101872.00;;;7.20
12918;BMP180;6526;54.312;13.092;2022-11-25T03:54:57;101874.00;;;7.30
12918;BMP180;6526;54.312;13.092;2022-11-25T03:57:23;101870.00;;;7.10
12918;BMP180;6526;54.312;13.092;2022-11-25T03:59:49;101879.00;;;7.20
12918;BMP180;6526;54.312;13.092;2022-11-25T04:02:15;101872.00;;;7.20
12918;BMP180;6526;54.312;13.092;2022-11-25T04:04:41;101886.00;;;7.40
12918;BMP180;6526;54.312;13.092;2022-11-25T04:07:07;101878.00;;;7.50
12918;BMP180;6526;54.312;13.092;2022-11-25T04:09:33;101880.00;;;7.30
12918;BMP180;6526;54.312;13.092;2022-11-25T04:11:59;101880.00;;;7.20
12918;BMP180;6526;54.312;13.092;2022-11-25T04:14:44;101890.00;;;7.40
12918;BMP180;6526;54.312;13.092;2022-11-25T04:17:10;101890.00;;;7.50
12918;BMP180;6526;54.312;13.092;2022-11-25T04:19:36;101884.00;;;7.40
12918;BMP180;6526;54.312;13.092;2022-11-25T04:22:02;101883.00;;;7.50
12918;BMP180;6526;54.312;13.092;2022-11-25T04:24:28;101890.00;;;7.60
12918;BMP180;6526;54.312;13.092;2022-11-25T04:26:55;101888.00;;;7.70
12918;BMP180;6526;54.312;13.092;2022-11-25T04:29:21;101880.00;;;7.80
12918;BMP180;6526;54.312;13.092;2022-11-25T04:31:47;101890.00;;;7.50
12918;BMP180;6526;54.312;13.092;2022-11-25T04:34:13;101887.00;;;7.60
12918;BMP180;6526;54.312;13.092;2022-11-25T04:36:39;101880.00;;;7.50
12918;BMP180;6526;54.312;13.092;2022-11-25T04:39:05;101885.00;;;7.50
12918;BMP180;6526;54.312;13.092;2022-11-25T04:41:31;101890.00;;;7.40
12918;BMP180;6526;54.312;13.092;2022-11-25T04:43:59;101892.00;;;7.60
12918;BMP180;6526;54.312;13.092;2022-11-25T04:46:34;101894.00;;;7.50
12918;BMP180;6526;54.312;13.092;2022-11-25T04:49:02;101901.00;;;7.60
12918;BMP180;6526;54.312;13.092;2022-11-25T04:51:28;101896.00;;;7.80
12918;BMP180;6526;54.312;13.092;2022-11-25T04:53:54;101909.00;;;7.50
12918;BMP180;6526;54.312;13.092;2022-11-25T04:56:20;101899.00;;;7.40
12918;BMP180;6526;54.312;13.092;2022-11-25T04:58:46;101903.00;;;7.40
12918;BMP180;6526;54.312;13.092;2022-11-25T05:01:31;101901.00;;;7.40
12918;BMP180;6526;54.312;13.092;2022-11-25T05:03:57;101908.00;;;7.40
12918;BMP180;6526;54.312;13.092;2022-11-25T05:06:23;101911.00;;;7.50
12918;BMP180;6526;54.312;13.092;2022-11-25T05:08:50;101904.00;;;7.30
12918;BMP180;6526;54.312;13.092;2022-11-25T05:11:16;101913.00;;;7.10
12918;BMP180;6526;54.312;13.092;2022-11-25T05:13:42;101909.00;;;7.20
12918;BMP180;6526;54.312;13.092;2022-11-25T05:16:08;101910.00;;;7.30
12918;BMP180;6526;54.312;13.092;2022-11-25T05:18:34;101917.00;;;7.20
12918;BMP180;6526;54.312;13.092;2022-11-25T05:21:04;101921.00;;;7.10
12918;BMP180;6526;54.312;13.092;2022-11-25T05:23:31;101922.00;;;7.10
12918;BMP180;6526;54.312;13.092;2022-11-25T05:26:01;101919.00;;;7.30
12918;BMP180;6526;54.312;13.092;2022-11-25T05:28:28;101933.00;;;7.40
12918;BMP180;6526;54.312;13.092;2022-11-25T05:30:54;101933.00;;;7.50
12918;BMP180;6526;54.312;13.092;2022-11-25T05:33:20;101932.00;;;7.50
12918;BMP180;6526;54.312;13.092;2022-11-25T05:36:01;101935.00;;;7.40
12918;BMP180;6526;54.312;13.092;2022-11-25T05:38:28;101922.00;;;7.30
12918;BMP180;6526;54.312;13.092;2022-11-25T05:41:00;101922.00;;;7.20
12918;BMP180;6526;54.312;13.092;2022-11-25T05:43:27;101923.00;;;7.00
12918;BMP180;6526;54.312;13.092;2022-11-25T05:45:53;101936.00;;;7.10
12918;BMP180;6526;54.312;13.092;2022-11-25T05:48:19;101929.00;;;7.30
12918;BMP180;6526;54.312;13.092;2022-11-25T05:50:45;101945.00;;;7.40
12918;BMP180;6526;54.312;13.092;2022-11-25T05:53:11;101936.00;;;7.60
12918;BMP180;6526;54.312;13.092;2022-11-25T05:55:37;101945.00;;;7.40
12918;BMP180;6526;54.312;13.092;2022-11-25T05:58:03;101943.00;;;7.20
12918;BMP180;6526;54.312;13.092;2022-11-25T06:00:31;101939.00;;;7.40
12918;BMP180;6526;54.312;13.092;2022-11-25T06:02:57;101956.00;;;7.50
12918;BMP180;6526;54.312;13.092;2022-11-25T06:05:23;101952.00;;;7.60
12918;BMP180;6526;54.312;13.092;2022-11-25T06:07:49;101950.00;;;7.40
12918;BMP180;6526;54.312;13.092;2022-11-25T06:10:16;101964.00;;;7.20
12918;BMP180;6526;54.312;13.092;2022-11-25T06:12:43;101967.00;;;7.20
12918;BMP180;6526;54.312;13.092;2022-11-25T06:15:10;101966.00;;;7.30
12918;BMP180;6526;54.312;13.092;2022-11-25T06:17:36;101966.00;;;7.10
12918;BMP180;6526;54.312;13.092;2022-11-25T06:20:03;101960.00;;;6.90
12918;BMP180;6526;54.312;13.092;2022-11-25T06:22:29;101972.00;;;7.10
12918;BMP180;6526;54.312;13.092;2022-11-25T06:24:55;101966.00;;;7.00
12918;BMP180;6526;54.312;13.092;2022-11-25T06:27:21;101963.00;;;6.90
12918;BMP180;6526;54.312;13.092;2022-11-25T06:29:47;101976.00;;;6.90
12918;BMP180;6526;54.312;13.092;2022-11-25T06:32:13;101961.00;;;6.90
12918;BMP180;6526;54.312;13.092;2022-11-25T06:34:39;101974.00;;;7.00
12918;BMP180;6526;54.312;13.092;2022-11-25T06:37:07;101974.00;;;7.00
12918;BMP180;6526;54.312;13.092;2022-11-25T06:39:33;101971.00;;;7.10
12918;BMP180;6526;54.312;13.092;2022-11-25T06:41:59;101971.00;;;7.20
12918;BMP180;6526;54.312;13.092;2022-11-25T06:44:26;101976.00;;;7.10
12918;BMP180;6526;54.312;13.092;2022-11-25T06:46:52;101978.00;;;7.10
12918;BMP180;6526;54.312;13.092;2022-11-25T06:49:18;101977.00;;;7.10
12918;BMP180;6526;54.312;13.092;2022-11-25T06:51:44;101989.00;;;7.20
12918;BMP180;6526;54.312;13.092;2022-11-25T06:54:10;101994.00;;;7.20
12918;BMP180;6526;54.312;13.092;2022-11-25T06:56:37;101980.00;;;7.30
12918;BMP180;6526;54.312;13.092;2022-11-25T06:59:03;101992.00;;;7.10
12918;BMP180;6526;54.312;13.092;2022-11-25T07:01:30;101996.00;;;7.10
12918;BMP180;6526;54.312;13.092;2022-11-25T07:04:02;101999.00;;;7.00
12918;BMP180;6526;54.312;13.092;2022-11-25T07:06:29;102001.00;;;7.00
12918;BMP180;6526;54.312;13.092;2022-11-25T07:08:56;101994.00;;;6.90
12918;BMP180;6526;54.312;13.092;2022-11-25T07:11:24;101994.00;;;7.10
12918;BMP180;6526;54.312;13.092;2022-11-25T07:13:53;102009.00;;;7.20
12918;BMP180;6526;54.312;13.092;2022-11-25T07:16:19;102006.00;;;7.20
12918;BMP180;6526;54.312;13.092;2022-11-25T07:18:45;102007.00;;;7.20
12918;BMP180;6526;54.312;13.092;2022-11-25T07:21:14;102008.00;;;7.20
12918;BMP180;6526;54.312;13.092;2022-11-25T07:23:41;102005.00;;;7.30
12918;BMP180;6526;54.312;13.092;2022-11-25T07:26:12;102009.00;;;7.30
12918;BMP180;6526;54.312;13.092;2022-11-25T07:28:39;102017.00;;;7.20
12918;BMP180;6526;54.312;13.092;2022-11-25T07:31:06;102021.00;;;7.10
12918;BMP180;6526;54.312;13.092;2022-11-25T07:33:34;102015.00;;;7.00
12918;BMP180;6526;54.312;13.092;2022-11-25T07:36:04;102015.00;;;7.00
12918;BMP180;6526;54.312;13.092;2022-11-25T07:38:31;102006.00;;;7.10
12918;BMP180;6526;54.312;13.092;2022-11-25T07:43:29;101999.00;;;6.90
12918;BMP180;6526;54.312;13.092;2022-11-25T07:45:55;102004.00;;;7.00
12918;BMP180;6526;54.312;13.092;2022-11-25T07:48:21;102008.00;;;7.10
12918;BMP180;6526;54.312;13.092;2022-11-25T07:50:47;101998.00;;;7.10
12918;BMP180;6526;54.312;13.092;2022-11-25T07:53:15;102002.00;;;7.30
12918;BMP180;6526;54.312;13.092;2022-11-25T07:55:41;101993.00;;;7.30
12918;BMP180;6526;54.312;13.092;2022-11-25T07:58:07;101992.00;;;7.30
12918;BMP180;6526;54.312;13.092;2022-11-25T08:00:33;101998.00;;;7.10
12918;BMP180;6526;54.312;13.092;2022-11-25T08:02:59;101999.00;;;7.20
12918;BMP180;6526;54.312;13.092;2022-11-25T08:05:25;101998.00;;;7.30
12918;BMP180;6526;54.312;13.092;2022-11-25T08:07:51;101996.00;;;7.30
12918;BMP180;6526;54.312;13.092;2022-11-25T08:10:17;102003.00;;;7.40
12918;BMP180;6526;54.312;13.092;2022-11-25T08:12:43;101999.00;;;7.40
12918;BMP180;6526;54.312;13.092;2022-11-25T08:15:09;101995.00;;;7.40
12918;BMP180;6526;54.312;13.092;2022-11-25T08:17:35;102001.00;;;7.40
12918;BMP180;6526;54.312;13.092;2022-11-25T08:20:01;102010.00;;;7.40
12918;BMP180;6526;54.312;13.092;2022-11-25T08:22:27;102016.00;;;7.40
12918;BMP180;6526;54.312;13.092;2022-11-25T08:24:53;102019.00;;;7.60
12918;BMP180;6526;54.312;13.092;2022-11-25T08:27:19;102016.00;;;7.40
12918;BMP180;6526;54.312;13.092;2022-11-25T08:29:45;102013.00;;;7.30
12918;BMP180;6526;54.312;13.092;2022-11-25T08:32:11;102020.00;;;7.20
12918;BMP180;6526;54.312;13.092;2022-11-25T08:34:37;102015.00;;;7.20
12918;BMP180;6526;54.312;13.092;2022-11-25T08:37:03;101999.00;;;7.40
12918;BMP180;6526;54.312;13.092;2022-11-25T08:39:29;102023.00;;;7.40
12918;BMP180;6526;54.312;13.092;2022-11-25T08:41:56;102016.00;;;7.50
12918;BMP180;6526;54.312;13.092;2022-11-25T08:44:22;101988.00;;;7.50
12918;BMP180;6526;54.312;13.092;2022-11-25T08:46:48;102028.00;;;7.50
12918;BMP180;6526;54.312;13.092;2022-11-25T08:49:14;102012.00;;;7.60
12918;BMP180;6526;54.312;13.092;2022-11-25T08:51:42;102011.00;;;7.60
12918;BMP180;6526;54.312;13.092;2022-11-25T08:54:09;102024.00;;;7.60
12918;BMP180;6526;54.312;13.092;2022-11-25T08:56:36;102011.00;;;7.60
12918;BMP180;6526;54.312;13.092;2022-11-25T08:59:02;102006.00;;;7.50
12918;BMP180;6526;54.312;13.092;2022-11-25T09:01:29;102016.00;;;7.60
12918;BMP180;6526;54.312;13.092;2022-11-25T09:03:56;102005.00;;;7.60
12918;BMP180;6526;54.312;13.092;2022-11-25T09:06:24;102001.00;;;7.70
12918;BMP180;6526;54.312;13.092;2022-11-25T09:08:53;102006.00;;;7.70
12918;BMP180;6526;54.312;13.092;2022-11-25T09:11:19;102013.00;;;7.80
12918;BMP180;6526;54.312;13.092;2022-11-25T09:13:45;102013.00;;;7.70
12918;BMP180;6526;54.312;13.092;2022-11-25T09:16:11;102023.00;;;7.70
12918;BMP180;6526;54.312;13.092;2022-11-25T09:18:37;102011.00;;;7.60
12918;BMP180;6526;54.312;13.092;2022-11-25T09:21:09;102011.00;;;7.60
12918;BMP180;6526;54.312;13.092;2022-11-25T09:23:36;102015.00;;;7.60
12918;BMP180;6526;54.312;13.092;2022-11-25T09:26:04;102010.00;;;7.70
12918;BMP180;6526;54.312;13.092;2022-11-25T09:28:30;102012.00;;;7.80
12918;BMP180;6526;54.312;13.092;2022-11-25T09:30:56;102000.00;;;7.80
12918;BMP180;6526;54.312;13.092;2022-11-25T09:33:23;102009.00;;;7.90
12918;BMP180;6526;54.312;13.092;2022-11-25T09:35:49;102017.00;;;7.80
12918;BMP180;6526;54.312;13.092;2022-11-25T09:38:15;102010.00;;;7.90
12918;BMP180;6526;54.312;13.092;2022-11-25T09:40:52;101999.00;;;8.00
12918;BMP180;6526;54.312;13.092;2022-11-25T09:54:43;102027.00;;;8.10
12918;BMP180;6526;54.312;13.092;2022-11-25T10:00:11;102027.00;;;7.90
12918;BMP180;6526;54.312;13.092;2022-11-25T10:05:40;102029.00;;;8.10
12918;BMP180;6526;54.312;13.092;2022-11-25T10:08:21;102029.00;;;7.90
12918;BMP180;6526;54.312;13.092;2022-11-25T10:10:54;102020.00;;;8.10
12918;BMP180;6526;54.312;13.092;2022-11-25T10:19:30;102017.00;;;8.20
12918;BMP180;6526;54.312;13.092;2022-11-25T10:22:13;102015.00;;;8.20
12918;BMP180;6526;54.312;13.092;2022-11-25T10:24:41;102016.00;;;8.20
12918;BMP180;6526;54.312;13.092;2022-11-25T10:27:17;102017.00;;;8.30
12918;BMP180;6526;54.312;13.092;2022-11-25T10:29:53;102011.00;;;8.50
12918;BMP180;6526;54.312;13.092;2022-11-25T10:32:24;102021.00;;;8.50
12918;BMP180;6526;54.312;13.092;2022-11-25T10:34:57;102017.00;;;8.50
12918;BMP180;6526;54.312;13.092;2022-11-25T10:37:32;102023.00;;;8.30
12918;BMP180;6526;54.312;13.092;2022-11-25T10:40:01;102027.00;;;8.50
12918;BMP180;6526;54.312;13.092;2022-11-25T10:42:27;102024.00;;;8.60
12918;BMP180;6526;54.312;13.092;2022-11-25T10:44:54;102023.00;;;8.60
12918;BMP180;6526;54.312;13.092;2022-11-25T10:47:55;102020.00;;;8.50
12918;BMP180;6526;54.312;13.092;2022-11-25T10:53:00;102017.00;;;8.30
12918;BMP180;6526;54.312;13.092;2022-11-25T10:55:30;102017.00;;;8.30
12918;BMP180;6526;54.312;13.092;2022-11-25T10:57:57;102017.00;;;8.30
12918;BMP180;6526;54.312;13.092;2022-11-25T11:00:35;102030.00;;;8.30
12918;BMP180;6526;54.312;13.092;2022-11-25T11:03:23;102023.00;;;8.30
12918;BMP180;6526;54.312;13.092;2022-11-25T11:05:54;102026.00;;;8.40
12918;BMP180;6526;54.312;13.092;2022-11-25T11:08:23;102015.00;;;8.50
12918;BMP180;6526;54.312;13.092;2022-11-25T11:11:19;102039.00;;;8.70
12918;BMP180;6526;54.312;13.092;2022-11-25T11:13:47;102051.00;;;8.70
12918;BMP180;6526;54.312;13.092;2022-11-25T11:16:26;102040.00;;;8.70
12918;BMP180;6526;54.312;13.092;2022-11-25T11:18:54;102050.00;;;8.80
12918;BMP180;6526;54.312;13.092;2022-11-25T11:21:29;102048.00;;;8.90
12918;BMP180;6526;54.312;13.092;2022-11-25T11:23:56;102042.00;;;8.80
12918;BMP180;6526;54.312;13.092;2022-11-25T11:26:30;102048.00;;;8.80
12918;BMP180;6526;54.312;13.092;2022-11-25T11:29:15;102044.00;;;9.00
12918;BMP180;6526;54.312;13.092;2022-11-25T11:31:56;102032.00;;;9.00
12918;BMP180;6526;54.312;13.092;2022-11-25T11:39:43;102057.00;;;9.00
12918;BMP180;6526;54.312;13.092;2022-11-25T11:48:19;102057.00;;;9.20
12918;BMP180;6526;54.312;13.092;2022-11-25T11:58:59;102049.00;;;9.00
12918;BMP180;6526;54.312;13.092;2022-11-25T12:01:38;102049.00;;;8.90
12918;BMP180;6526;54.312;13.092;2022-11-25T12:04:28;102044.00;;;8.90
12918;BMP180;6526;54.312;13.092;2022-11-25T12:10:09;102050.00;;;9.00
12918;BMP180;6526;54.312;13.092;2022-11-25T12:12:49;102042.00;;;9.10
12918;BMP180;6526;54.312;13.092;2022-11-25T12:16:03;102044.00;;;9.10
12918;BMP180;6526;54.312;13.092;2022-11-25T12:18:34;102044.00;;;9.10
12918;BMP180;6526;54.312;13.092;2022-11-25T12:21:12;102043.00;;;9.20
12918;BMP180;6526;54.312;13.092;2022-11-25T12:24:05;102038.00;;;9.20
12918;BMP180;6526;54.312;13.092;2022-11-25T12:27:15;102036.00;;;9.30
12918;BMP180;6526;54.312;13.092;2022-11-25T12:29:47;102040.00;;;9.30
12918;BMP180;6526;54.312;13.092;2022-11-25T12:35:06;102038.00;;;9.00
12918;BMP180;6526;54.312;13.092;2022-11-25T12:46:04;102034.00;;;9.00
12918;BMP180;6526;54.312;13.092;2022-11-25T12:48:40;102053.00;;;9.20
12918;BMP180;6526;54.312;13.092;2022-11-25T12:51:23;102038.00;;;9.10
12918;BMP180;6526;54.312;13.092;2022-11-25T12:54:05;102031.00;;;8.90
12918;BMP180;6526;54.312;13.092;2022-11-25T13:07:59;102031.00;;;9.30
12918;BMP180;6526;54.312;13.092;2022-11-25T13:13:48;102052.00;;;9.30
12918;BMP180;6526;54.312;13.092;2022-11-25T13:16:15;102044.00;;;9.20
12918;BMP180;6526;54.312;13.092;2022-11-25T13:18:43;102048.00;;;9.10
12918;BMP180;6526;54.312;13.092;2022-11-25T13:21:11;102033.00;;;9.10
12918;BMP180;6526;54.312;13.092;2022-11-25T13:28:55;102034.00;;;9.00
12918;BMP180;6526;54.312;13.092;2022-11-25T13:31:32;102033.00;;;8.90
12918;BMP180;6526;54.312;13.092;2022-11-25T13:34:07;102029.00;;;8.80
12918;BMP180;6526;54.312;13.092;2022-11-25T13:36:47;102031.00;;;8.70
12918;BMP180;6526;54.312;13.092;2022-11-25T13:39:18;102024.00;;;8.50
12918;BMP180;6526;54.312;13.092;2022-11-25T13:42:18;102019.00;;;8.50
12918;BMP180;6526;54.312;13.092;2022-11-25T13:44:54;102026.00;;;8.50
12918;BMP180;6526;54.312;13.092;2022-11-25T13:47:29;102041.00;;;8.50
12918;BMP180;6526;54.312;13.092;2022-11-25T13:52:48;102047.00;;;8.70
12918;BMP180;6526;54.312;13.092;2022-11-25T13:58:33;102046.00;;;8.80
12918;BMP180;6526;54.312;13.092;2022-11-25T14:01:00;102052.00;;;8.80
12918;BMP180;6526;54.312;13.092;2022-11-25T14:17:49;102070.00;;;8.40
12918;BMP180;6526;54.312;13.092;2022-11-25T14:20:29;102067.00;;;8.60
12918;BMP180;6526;54.312;13.092;2022-11-25T14:23:30;102079.00;;;8.90
12918;BMP180;6526;54.312;13.092;2022-11-25T14:26:11;102074.00;;;8.60
12918;BMP180;6526;54.312;13.092;2022-11-25T14:29:08;102075.00;;;8.50
12918;BMP180;6526;54.312;13.092;2022-11-25T14:31:44;102075.00;;;8.50
12918;BMP180;6526;54.312;13.092;2022-11-25T14:34:30;102042.00;;;8.50
12918;BMP180;6526;54.312;13.092;2022-11-25T14:37:09;102070.00;;;8.50
12918;BMP180;6526;54.312;13.092;2022-11-25T14:39:57;102078.00;;;8.40
12918;BMP180;6526;54.312;13.092;2022-11-25T14:42:30;102079.00;;;8.50
12918;BMP180;6526;54.312;13.092;2022-11-25T14:44:57;102079.00;;;8.70
12918;BMP180;6526;54.312;13.092;2022-11-25T14:47:30;102076.00;;;8.70
12918;BMP180;6526;54.312;13.092;2022-11-25T14:49:58;102086.00;;;8.60
12918;BMP180;6526;54.312;13.092;2022-11-25T14:52:34;102096.00;;;8.40
12918;BMP180;6526;54.312;13.092;2022-11-25T14:55:03;102095.00;;;8.40
12918;BMP180;6526;54.312;13.092;2022-11-25T14:57:33;102092.00;;;8.50
12918;BMP180;6526;54.312;13.092;2022-11-25T15:00:11;102112.00;;;8.40
12918;BMP180;6526;54.312;13.092;2022-11-25T15:03:03;102108.00;;;8.30
12918;BMP180;6526;54.312;13.092;2022-11-25T15:05:36;102114.00;;;8.30
12918;BMP180;6526;54.312;13.092;2022-11-25T15:08:15;102106.00;;;8.30
12918;BMP180;6526;54.312;13.092;2022-11-25T15:11:01;102103.00;;;8.30
12918;BMP180;6526;54.312;13.092;2022-11-25T15:13:38;102104.00;;;8.20
12918;BMP180;6526;54.312;13.092;2022-11-25T15:16:12;102093.00;;;8.10
12918;BMP180;6526;54.312;13.092;2022-11-25T15:18:49;102101.00;;;7.90
12918;BMP180;6526;54.312;13.092;2022-11-25T15:21:20;102110.00;;;8.10
12918;BMP180;6526;54.312;13.092;2022-11-25T15:23:47;102109.00;;;8.20
12918;BMP180;6526;54.312;13.092;2022-11-25T15:26:20;102114.00;;;8.10
12918;BMP180;6526;54.312;13.092;2022-11-25T15:28:52;102104.00;;;8.30
12918;BMP180;6526;54.312;13.092;2022-11-25T15:31:20;102115.00;;;8.20
12918;BMP180;6526;54.312;13.092;2022-11-25T15:33:51;102117.00;;;8.10
12918;BMP180;6526;54.312;13.092;2022-11-25T15:36:18;102112.00;;;8.10
12918;BMP180;6526;54.312;13.092;2022-11-25T15:38:45;102117.00;;;8.00
12918;BMP180;6526;54.312;13.092;2022-11-25T15:43:51;102115.00;;;8.10
12918;BMP180;6526;54.312;13.092;2022-11-25T15:46:18;102117.00;;;8.00
12918;BMP180;6526;54.312;13.092;2022-11-25T15:48:47;102125.00;;;8.10
12918;BMP180;6526;54.312;13.092;2022-11-25T15:51:34;102128.00;;;8.20
12918;BMP180;6526;54.312;13.092;2022-11-25T15:54:19;102131.00;;;8.10
12918;BMP180;6526;54.312;13.092;2022-11-25T15:57:10;102131.00;;;8.00
12918;BMP180;6526;54.312;13.092;2022-11-25T15:59:46;102138.00;;;7.90
12918;BMP180;6526;54.312;13.092;2022-11-25T16:02:48;102120.00;;;7.80
12918;BMP180;6526;54.312;13.092;2022-11-25T16:05:16;102135.00;;;7.90
12918;BMP180;6526;54.312;13.092;2022-11-25T16:10:32;102129.00;;;7.90
12918;BMP180;6526;54.312;13.092;2022-11-25T16:18:17;102134.00;;;8.00
12918;BMP180;6526;54.312;13.092;2022-11-25T16:20:55;102138.00;;;7.90
12918;BMP180;6526;54.312;13.092;2022-11-25T16:23:23;102139.00;;;8.10
12918;BMP180;6526;54.312;13.092;2022-11-25T16:25:53;102151.00;;;8.20